Time;durP1;ratioP1;P1;durP2;ratioP2;P2;SDS_P1;SDS_P2;PMS_P1;PMS_P2;Temp;Humidity;BMP_temperature;BMP_pressure;BME280_temperature;BME280_humidity;BME280_pressure;Samples;Min_cycle;Max_cycle;Signal;HPM_P1;HPM_P2
2022/06/13 00:01:42;;;;;;;2.85;1.48;;;;;;;22.23;43.72;101991.78;5108227;28;20050;-64
2022/06/13 00:04:08;;;;;;;3.33;1.58;;;;;;;22.21;43.67;101989.22;5107958;28;20024;-64
2022/06/13 00:06:35;;;;;;;5.30;1.85;;;;;;;22.22;43.42;101990.09;5108383;28;20053;-63
2022/06/13 00:09:01;;;;;;;3.83;1.58;;;;;;;22.18;43.63;101994.16;5108245;28;20024;-64
2022/06/13 00:11:26;;;;;;;3.20;1.73;;;;;;;22.20;43.88;102002.94;5108168;28;20103;-65
2022/06/13 00:13:54;;;;;;;2.63;1.42;;;;;;;22.20;43.75;102001.06;5107872;28;20031;-63
2022/06/13 00:16:20;;;;;;;2.58;2.13;;;;;;;22.15;43.61;101991.75;5108041;28;20028;-63
2022/06/13 00:18:48;;;;;;;3.78;1.65;;;;;;;22.12;43.54;101989.34;5121202;28;20049;-64
2022/06/13 00:21:25;;;;;;;4.30;1.90;;;;;;;22.19;43.96;102002.09;5128594;28;20034;-64
2022/06/13 00:23:50;;;;;;;2.90;1.73;;;;;;;22.18;43.66;102008.53;5126665;28;20023;-64
2022/06/13 00:26:21;;;;;;;3.50;1.80;;;;;;;22.18;43.75;102004.97;5127773;28;20039;-63
2022/06/13 00:28:47;;;;;;;4.72;2.03;;;;;;;22.12;43.81;102003.75;5128346;28;20023;-63
2022/06/13 00:31:12;;;;;;;4.32;2.22;;;;;;;22.16;43.86;102007.00;5109938;28;20023;-63
2022/06/13 00:33:38;;;;;;;4.82;2.40;;;;;;;22.17;43.82;102014.09;5127768;28;20019;-64
2022/06/13 00:36:03;;;;;;;3.78;1.90;;;;;;;22.16;43.82;102018.66;5128193;28;20107;-64
2022/06/13 00:38:28;;;;;;;4.50;2.10;;;;;;;22.16;43.89;102029.50;5127962;28;20023;-63
2022/06/13 00:40:54;;;;;;;3.78;2.15;;;;;;;22.15;43.80;102026.97;5127980;28;20086;-63
2022/06/13 00:43:19;;;;;;;3.60;1.92;;;;;;;22.15;44.08;102025.09;5127643;28;20051;-64
2022/06/13 00:45:44;;;;;;;2.80;1.83;;;;;;;22.15;44.02;102016.97;5128023;28;20031;-64
2022/06/13 00:48:14;;;;;;;5.28;2.22;;;;;;;22.14;43.99;101995.47;5114522;28;20051;-63
2022/06/13 00:50:55;;;;;;;4.10;1.95;;;;;;;22.14;44.01;101999.03;5107500;28;20020;-64
2022/06/13 00:53:32;;;;;;;3.92;2.15;;;;;;;22.13;44.22;101989.22;5089183;28;20103;-63
2022/06/13 00:56:00;;;;;;;4.15;2.00;;;;;;;22.13;44.36;101972.97;5107257;28;20034;-63
2022/06/13 00:58:29;;;;;;;6.25;2.08;;;;;;;22.13;44.22;101959.44;5107112;28;20028;-63
2022/06/13 01:00:55;;;;;;;5.70;2.60;;;;;;;22.12;44.66;101951.41;5089271;28;20527;-63
2022/06/13 01:03:26;;;;;;;6.70;2.40;;;;;;;22.12;44.63;101948.69;5108466;28;20030;-63
2022/06/13 01:05:52;;;;;;;6.22;2.65;;;;;;;22.11;44.42;101937.03;5105048;28;20028;-64
2022/06/13 01:08:19;;;;;;;5.65;2.72;;;;;;;22.11;44.59;101937.03;5106609;28;20538;-63
2022/06/13 01:13:37;;;;;;;5.10;2.78;;;;;;;22.11;44.53;101944.31;5126953;28;20038;-63
2022/06/13 01:16:15;;;;;;;4.10;2.38;;;;;;;22.10;44.80;101943.47;5127480;28;20026;-63
2022/06/13 01:18:52;;;;;;;5.43;2.60;;;;;;;22.10;44.72;101946.16;5123536;28;20078;-63
2022/06/13 01:21:27;;;;;;;3.42;1.98;;;;;;;22.08;44.95;101950.88;5109046;28;20028;-64
2022/06/13 01:24:14;;;;;;;6.20;2.15;;;;;;;22.09;44.63;101954.44;5127075;28;20030;-64
2022/06/13 01:27:00;;;;;;;3.45;1.80;;;;;;;22.08;45.02;101950.88;5126899;28;20026;-63
2022/06/13 01:29:36;;;;;;;3.70;2.35;;;;;;;22.08;44.97;101958.16;5108708;28;20037;-63
2022/06/13 01:32:23;;;;;;;3.90;2.15;;;;;;;22.07;45.00;101957.31;5126959;28;20032;-63
2022/06/13 01:35:09;;;;;;;5.82;2.78;;;;;;;22.06;45.03;101958.34;5108372;28;20024;-64
2022/06/13 01:38:00;;;;;;;6.60;2.03;;;;;;;22.06;44.84;101961.06;5090184;28;20020;-63
2022/06/13 01:40:43;;;;;;;5.47;2.55;;;;;;;22.05;44.95;101953.94;5106163;28;20028;-63
2022/06/13 01:43:40;;;;;;;4.63;2.08;;;;;;;22.05;44.96;101939.56;5105825;28;20048;-65
2022/06/13 01:46:18;;;;;;;5.18;2.45;;;;;;;22.03;45.06;101939.72;5106249;28;20049;-63
2022/06/13 01:48:58;;;;;;;4.80;2.00;;;;;;;22.04;45.18;101938.69;5087480;28;20393;-64
2022/06/13 01:51:43;;;;;;;5.60;2.70;;;;;;;21.99;45.02;101949.16;5106051;28;20023;-63
2022/06/13 01:54:20;;;;;;;4.75;2.35;;;;;;;22.03;45.15;101952.41;5087790;28;20085;-64
2022/06/13 01:57:02;;;;;;;5.33;2.47;;;;;;;22.04;44.98;101959.50;5105999;28;20031;-63
2022/06/13 01:59:43;;;;;;;10.00;2.67;;;;;;;22.03;45.27;101966.78;5105915;28;20268;-63
2022/06/13 02:02:17;;;;;;;3.45;2.00;;;;;;;22.03;45.20;101963.25;5116209;28;20058;-63
2022/06/13 02:04:47;;;;;;;3.72;2.55;;;;;;;22.02;45.15;101956.13;5090468;28;20036;-63
2022/06/13 02:07:19;;;;;;;3.47;2.00;;;;;;;22.02;45.25;101945.28;5087852;28;20036;-63
2022/06/13 02:09:58;;;;;;;5.78;2.55;;;;;;;22.02;45.09;101948.00;5087599;28;20032;-63
2022/06/13 02:12:25;;;;;;;4.85;2.50;;;;;;;22.00;44.95;101945.44;5087242;28;20602;-63
2022/06/13 02:14:57;;;;;;;6.60;2.55;;;;;;;22.00;45.12;101950.00;5105709;28;20028;-63
2022/06/13 02:17:24;;;;;;;3.50;1.83;;;;;;;22.01;45.13;101949.03;5087873;28;20042;-63
2022/06/13 02:20:13;;;;;;;4.05;2.10;;;;;;;22.00;45.13;101950.84;5086995;28;20038;-63
2022/06/13 02:22:44;;;;;;;3.70;2.13;;;;;;;21.99;45.30;101953.75;5087480;28;20024;-63
2022/06/13 02:25:12;;;;;;;4.90;2.60;;;;;;;21.99;45.23;101956.44;5105577;28;20032;-63
2022/06/13 02:27:38;;;;;;;4.88;2.75;;;;;;;21.94;45.50;101944.25;5105388;28;20089;-63
2022/06/13 02:30:11;;;;;;;4.90;2.10;;;;;;;;;;5105260;28;20476;-63
2022/06/13 02:32:41;;;;;;;5.32;3.10;;;;;;;21.96;45.17;101947.66;5105194;28;20031;-63
2022/06/13 02:35:12;;;;;;;5.68;2.50;;;;;;;21.96;45.36;101944.06;5087487;28;20107;-64
2022/06/13 02:37:42;;;;;;;5.03;2.28;;;;;;;21.95;45.17;101943.22;5087308;28;20064;-63
2022/06/13 02:40:15;;;;;;;4.85;2.67;;;;;;;21.95;45.17;101940.53;5087388;28;20028;-64
2022/06/13 02:42:50;;;;;;;3.92;2.05;;;;;;;21.95;45.58;101939.69;5086818;28;20051;-63
2022/06/13 02:45:23;;;;;;;4.35;2.20;;;;;;;21.94;45.22;101946.97;5087373;28;20020;-63
2022/06/13 02:48:03;;;;;;;4.50;2.35;;;;;;;21.94;45.19;101941.53;5069573;28;20020;-63
2022/06/13 02:50:45;;;;;;;3.22;2.47;;;;;;;21.93;45.45;101942.56;5091651;28;20107;-63
2022/06/13 02:53:16;;;;;;;5.40;2.60;;;;;;;21.88;45.31;101944.91;5091313;28;20024;-63
2022/06/13 02:55:44;;;;;;;5.95;2.67;;;;;;;21.92;45.31;101932.75;5091578;28;20028;-63
2022/06/13 02:58:34;;;;;;;3.72;2.35;;;;;;;21.92;45.35;101943.59;5109258;28;20055;-63
2022/06/13 03:01:07;;;;;;;5.93;2.70;;;;;;;21.92;45.56;101945.44;5091631;28;20024;-63
2022/06/13 03:03:47;;;;;;;4.32;2.33;;;;;;;21.91;45.36;101949.13;5109186;28;20088;-63
2022/06/13 03:06:31;;;;;;;4.70;2.08;;;;;;;21.90;45.46;101955.56;5109451;28;20038;-64
2022/06/13 03:09:11;;;;;;;3.53;1.83;;;;;;;21.90;45.63;101951.00;5108835;28;20031;-63
2022/06/13 03:11:46;;;;;;;6.63;2.90;;;;;;;21.89;45.44;101954.72;5090847;28;20043;-63
2022/06/13 03:14:51;;;;;;;4.63;2.45;;;;;;;21.87;45.39;101956.72;5090950;28;20039;-64
2022/06/13 03:17:32;;;;;;;4.05;2.30;;;;;;;21.89;45.69;101953.88;5109436;28;20024;-63
2022/06/13 03:20:09;;;;;;;6.60;2.70;;;;;;;21.87;45.48;101954.03;5129472;28;20028;-63
2022/06/13 03:22:47;;;;;;;4.72;2.60;;;;;;;21.88;45.56;101949.47;5129411;28;20045;-63
2022/06/13 03:25:31;;;;;;;5.97;2.60;;;;;;;21.87;45.57;101950.47;5111444;28;20035;-63
2022/06/13 03:28:08;;;;;;;6.57;2.90;;;;;;;21.84;45.41;101948.97;5110919;28;20256;-63
2022/06/13 03:30:37;;;;;;;4.35;2.50;;;;;;;21.87;45.71;101947.75;5129428;28;20031;-63
2022/06/13 03:35:59;;;;;;;4.78;2.80;;;;;;;21.85;45.33;101958.78;5129537;28;20396;-64
2022/06/13 03:38:28;;;;;;;3.33;2.08;;;;;;;21.85;45.25;101960.63;5110645;28;20027;-62
2022/06/13 03:40:57;;;;;;;6.28;3.00;;;;;;;21.78;45.43;101949.59;5127341;28;20088;-63
2022/06/13 03:43:32;;;;;;;4.28;2.50;;;;;;;21.84;45.65;101962.50;5090054;28;20512;-63
2022/06/13 03:46:10;;;;;;;2.92;2.13;;;;;;;21.84;45.45;101962.50;5108491;28;20493;-63
2022/06/13 03:48:42;;;;;;;5.97;2.72;;;;;;;21.82;45.63;101967.22;5108121;28;20020;-63
2022/06/13 03:51:16;;;;;;;3.42;2.22;;;;;;;21.83;45.68;101962.63;5108568;28;20092;-64
2022/06/13 03:53:55;;;;;;;4.93;2.47;;;;;;;21.84;45.63;101969.78;5090246;28;20034;-63
2022/06/13 03:56:26;;;;;;;5.13;2.65;;;;;;;21.82;45.41;101963.66;5090462;28;20383;-63
2022/06/13 03:59:03;;;;;;;5.07;2.50;;;;;;;21.82;45.80;101971.78;5090063;28;20365;-63
2022/06/13 04:01:35;;;;;;;5.65;2.95;;;;;;;21.81;45.43;101967.38;5089769;28;20122;-64
2022/06/13 04:04:01;;;;;;;3.65;2.38;;;;;;;21.81;45.67;101968.22;5108093;28;20024;-63
2022/06/13 04:06:33;;;;;;;4.80;2.50;;;;;;;21.79;45.63;101975.69;5108301;28;20032;-63
2022/06/13 04:09:00;;;;;;;4.82;2.28;;;;;;;21.80;45.81;101974.66;5108045;28;20036;-63
2022/06/13 04:11:38;;;;;;;4.50;2.28;;;;;;;21.72;45.66;101963.78;5095277;28;20455;-63
2022/06/13 04:14:29;;;;;;;3.58;2.30;;;;;;;21.79;45.50;101975.69;5091484;28;20533;-63
2022/06/13 04:17:05;;;;;;;5.55;2.75;;;;;;;21.79;45.55;101978.38;5025966;28;20041;-64
2022/06/13 04:19:36;;;;;;;4.47;2.47;;;;;;;21.79;45.53;101986.50;5009030;28;20037;-64
2022/06/13 04:22:14;;;;;;;8.93;2.88;;;;;;;21.79;45.84;101986.50;5026183;28;20507;-64
2022/06/13 04:24:48;;;;;;;3.55;2.30;;;;;;;21.78;45.72;101990.19;5029173;28;20038;-63
2022/06/13 04:27:22;;;;;;;4.70;2.85;;;;;;;21.78;45.92;101987.50;5022849;28;20014;-64
2022/06/13 04:29:53;;;;;;;4.18;2.53;;;;;;;21.77;45.56;101993.94;5039511;28;20025;-63
2022/06/13 04:32:23;;;;;;;3.80;2.35;;;;;;;21.77;45.79;101985.81;5039299;28;20049;-63
2022/06/13 04:34:50;;;;;;;5.32;2.80;;;;;;;21.77;45.88;101987.66;5017765;28;20038;-64
2022/06/13 04:37:19;;;;;;;5.20;2.35;;;;;;;21.76;45.58;101989.53;5025863;28;20061;-63
2022/06/13 04:39:47;;;;;;;9.38;3.67;;;;;;;21.76;45.58;101985.97;5025221;28;20041;-63
2022/06/13 04:42:13;;;;;;;4.20;2.20;;;;;;;21.75;45.90;101985.13;5024906;28;20073;-63
2022/06/13 04:44:40;;;;;;;5.10;2.55;;;;;;;21.76;45.98;101991.38;5025444;28;20469;-63
2022/06/13 04:47:05;;;;;;;5.90;3.05;;;;;;;21.75;45.63;101977.00;5024959;28;20045;-63
2022/06/13 04:49:34;;;;;;;4.38;2.80;;;;;;;21.75;46.09;101982.41;5024569;28;20586;-63
2022/06/13 04:52:00;;;;;;;;;;;;;;;21.75;45.72;101982.41;5009348;28;20037;-62
2022/06/13 04:54:34;;;;;;;4.82;2.92;;;;;;;21.76;45.77;101985.97;5067437;28;19912;-63
2022/06/13 04:57:00;;;;;;;5.32;2.70;;;;;;;21.74;45.96;101986.13;5088814;28;20070;-62
2022/06/13 04:59:27;;;;;;;5.40;2.58;;;;;;;21.74;45.98;101985.28;5089140;28;20024;-63
2022/06/13 05:01:52;;;;;;;4.38;2.65;;;;;;;21.74;46.13;101988.81;5089308;28;20024;-63
2022/06/13 05:04:21;;;;;;;5.03;3.10;;;;;;;21.75;45.83;101989.66;5088705;28;20130;-62
2022/06/13 05:06:53;;;;;;;3.83;2.38;;;;;;;21.75;45.91;101989.66;5105473;28;20035;-62
2022/06/13 05:09:28;;;;;;;5.60;2.35;;;;;;;21.75;46.11;101995.09;5127222;28;20019;-63
2022/06/13 05:12:25;;;;;;;3.83;2.75;;;;;;;21.76;46.11;101989.53;5089648;28;20028;-63
2022/06/13 05:15:17;;;;;;;4.15;2.20;;;;;;;21.77;45.85;101993.06;5088890;28;20052;-63
2022/06/13 05:18:07;;;;;;;4.35;2.30;;;;;;;21.76;46.10;101992.22;5105286;28;20044;-62
2022/06/13 05:20:45;;;;;;;5.60;3.20;;;;;;;21.73;45.87;101991.69;5088635;28;20036;-63
2022/06/13 05:23:47;;;;;;;5.82;3.00;;;;;;;21.76;46.19;101997.66;5088636;28;20047;-63
2022/06/13 05:26:13;;;;;;;4.85;2.78;;;;;;;21.76;45.97;102004.91;5106696;28;20047;-63
2022/06/13 05:28:38;;;;;;;4.78;2.53;;;;;;;21.77;45.89;102006.63;5106357;28;20028;-63
2022/06/13 05:31:09;;;;;;;5.28;2.53;;;;;;;21.75;45.88;102001.38;5106811;28;20031;-63
2022/06/13 05:33:40;;;;;;;4.93;2.30;;;;;;;21.70;45.97;101995.56;5106079;28;20020;-63
2022/06/13 05:36:08;;;;;;;6.45;2.92;;;;;;;21.78;46.24;102017.28;5113184;28;20079;-63
2022/06/13 05:38:37;;;;;;;6.55;2.92;;;;;;;21.77;46.31;102015.56;5088974;28;20047;-62
2022/06/13 05:41:02;;;;;;;5.13;2.13;;;;;;;21.77;45.94;102003.91;5088190;28;20028;-63
2022/06/13 05:43:27;;;;;;;8.05;2.53;;;;;;;21.70;46.42;101999.13;5105487;28;20472;-63
2022/06/13 05:45:53;;;;;;;3.58;2.20;;;;;;;21.79;46.07;102012.69;5106072;28;20032;-63
2022/06/13 05:48:20;;;;;;;4.93;2.10;;;;;;;21.79;46.05;102021.69;5105519;28;20028;-63
2022/06/13 05:50:46;;;;;;;6.53;2.58;;;;;;;21.79;45.81;102019.00;5087848;28;20040;-63
2022/06/13 05:53:12;;;;;;;7.25;3.42;;;;;;;21.79;46.05;102024.41;5105823;28;20130;-63
2022/06/13 05:55:38;;;;;;;5.38;2.72;;;;;;;21.79;46.18;102027.13;5106113;28;20164;-63
2022/06/13 05:58:03;;;;;;;4.55;2.60;;;;;;;21.80;45.81;102031.50;5105670;28;20483;-63
2022/06/13 06:00:33;;;;;;;4.40;2.60;;;;;;;21.81;46.01;102035.06;5105894;28;20469;-64
2022/06/13 06:02:58;;;;;;;5.13;2.75;;;;;;;21.80;45.92;102034.22;5105280;28;20045;-63
2022/06/13 06:05:24;;;;;;;4.80;2.35;;;;;;;21.78;45.68;102033.50;5108439;28;20063;-63
2022/06/13 06:07:49;;;;;;;5.47;2.38;;;;;;;21.80;45.77;102036.94;5087823;28;20031;-63
2022/06/13 06:10:21;;;;;;;4.40;2.60;;;;;;;21.77;45.63;102031.81;5110681;28;20051;-64
2022/06/13 06:12:46;;;;;;;4.57;2.03;;;;;;;21.81;45.80;102048.59;5107426;28;20365;-63
2022/06/13 06:15:12;;;;;;;5.95;2.00;;;;;;;21.80;45.48;102046.91;5126081;28;20038;-64
2022/06/13 06:17:37;;;;;;;4.85;2.38;;;;;;;21.80;45.48;102058.59;5126035;28;20035;-63
2022/06/13 06:20:03;;;;;;;3.67;2.00;;;;;;;21.81;45.52;102048.59;5125475;28;20087;-63
2022/06/13 06:22:29;;;;;;;3.65;1.83;;;;;;;21.80;45.44;102057.75;5107681;28;20047;-63
2022/06/13 06:24:54;;;;;;;5.95;2.10;;;;;;;21.80;45.76;102055.03;5125638;28;20032;-63
2022/06/13 06:27:19;;;;;;;4.88;2.05;;;;;;;21.80;45.56;102055.03;5125742;28;20019;-63
2022/06/13 06:29:44;;;;;;;5.13;2.30;;;;;;;21.80;45.70;102055.88;5125831;28;20032;-63
2022/06/13 06:32:10;;;;;;;5.43;2.28;;;;;;;21.80;45.81;102058.59;5125783;28;20020;-63
2022/06/13 06:34:35;;;;;;;4.03;2.00;;;;;;;21.79;45.56;102061.44;5122553;28;20031;-63
2022/06/13 06:37:01;;;;;;;3.90;1.80;;;;;;;21.81;45.63;102060.28;5105290;28;20035;-62
2022/06/13 06:39:26;;;;;;;3.33;1.90;;;;;;;21.82;45.38;102066.53;5105450;28;20032;-63
2022/06/13 06:41:52;;;;;;;2.47;1.52;;;;;;;21.82;45.50;102069.25;5105142;28;20051;-63
2022/06/13 06:44:18;;;;;;;3.80;1.88;;;;;;;21.79;45.63;102066.84;5119481;28;20039;-63
2022/06/13 06:46:43;;;;;;;5.70;1.95;;;;;;;21.81;45.19;102081.09;5125689;28;20034;-63
2022/06/13 06:49:09;;;;;;;4.57;1.90;;;;;;;21.82;45.24;102072.78;5124886;28;20051;-63
2022/06/13 06:51:34;;;;;;;3.40;2.10;;;;;;;21.81;45.58;102076.53;5125551;28;20028;-64
2022/06/13 07:02:11;;;;;;;4.75;2.05;;;;;;;21.79;45.30;102073.13;5125782;28;20031;-64
2022/06/13 07:04:37;;;;;;;4.53;2.03;;;;;;;21.74;45.66;102067.31;5103683;28;20027;-63
2022/06/13 07:07:03;;;;;;;3.97;1.63;;;;;;;21.78;45.31;102059.75;5105081;28;20039;-63
2022/06/13 07:09:28;;;;;;;3.58;1.30;;;;;;;21.79;45.31;102059.59;5104963;28;20055;-64
2022/06/13 07:11:54;;;;;;;5.15;1.98;;;;;;;21.80;45.13;102063.16;5123958;28;20102;-64
2022/06/13 07:14:20;;;;;;;3.33;1.52;;;;;;;21.79;45.50;102067.72;5107218;28;20028;-64
2022/06/13 07:16:45;;;;;;;1.95;1.30;;;;;;;21.80;45.14;102073.97;5125464;28;20031;-64
2022/06/13 07:19:11;;;;;;;5.65;2.50;;;;;;;21.81;45.25;102076.53;5124663;28;20020;-63
2022/06/13 07:21:36;;;;;;;5.53;2.33;;;;;;;21.81;45.01;102075.66;5125525;28;20555;-64
2022/06/13 07:24:02;;;;;;;5.25;1.70;;;;;;;21.82;45.31;102069.25;5106857;28;20032;-65
2022/06/13 07:26:27;;;;;;;4.60;1.90;;;;;;;21.80;45.17;102064.00;5125233;28;20030;-64
2022/06/13 07:28:52;;;;;;;2.58;1.40;;;;;;;21.80;44.93;102073.97;5106718;28;20053;-64
2022/06/13 07:31:19;;;;;;;2.53;1.25;;;;;;;21.81;45.18;102083.78;5106867;28;20452;-64
2022/06/13 07:33:49;;;;;;;3.70;1.83;;;;;;;21.80;44.98;102082.09;5124632;28;20064;-64
2022/06/13 07:36:15;;;;;;;4.25;1.48;;;;;;;21.80;45.00;102084.81;5111350;28;20487;-64
2022/06/13 07:38:41;;;;;;;2.47;1.33;;;;;;;21.78;44.69;102087.66;5108385;28;20024;-64
2022/06/13 07:41:06;;;;;;;5.38;1.50;;;;;;;21.79;44.84;102085.78;5108635;28;20487;-64
2022/06/13 07:43:36;;;;;;;3.40;1.40;;;;;;;21.79;44.39;102088.50;5067538;28;20048;-64
2022/06/13 07:46:05;;;;;;;4.68;1.73;;;;;;;21.78;44.52;102090.38;5068439;28;20051;-64
2022/06/13 07:48:31;;;;;;;5.90;1.30;;;;;;;21.80;44.54;102096.50;5067508;28;20059;-64
2022/06/13 07:50:57;;;;;;;4.03;1.88;;;;;;;21.80;44.75;102099.19;5068022;28;20110;-64
2022/06/13 07:53:23;;;;;;;3.92;1.55;;;;;;;21.73;44.25;102083.75;5067732;28;20025;-64
2022/06/13 07:55:48;;;;;;;4.78;1.48;;;;;;;21.76;44.42;102089.69;5068048;28;20033;-64
2022/06/13 07:58:20;;;;;;;2.30;1.20;;;;;;;21.80;44.51;102104.59;5066509;28;20024;-64
2022/06/13 08:00:48;;;;;;;3.60;1.35;;;;;;;21.81;44.26;102108.16;5066740;28;20120;-64
2022/06/13 08:03:17;;;;;;;3.42;1.50;;;;;;;21.81;44.49;102108.16;5066069;28;20029;-64
2022/06/13 08:05:42;;;;;;;4.13;1.50;;;;;;;21.81;44.54;102110.88;5067858;28;20101;-64
2022/06/13 08:08:08;;;;;;;2.53;1.30;;;;;;;21.81;44.50;102122.53;5067627;28;20036;-64
2022/06/13 08:10:33;;;;;;;4.28;1.30;;;;;;;21.82;44.26;102123.38;5074825;28;20028;-64
2022/06/13 08:12:59;;;;;;;3.95;1.60;;;;;;;21.82;44.20;102128.81;5086312;28;20024;-64
2022/06/13 08:15:24;;;;;;;2.58;1.20;;;;;;;21.83;44.41;102128.63;5087721;28;20040;-64
2022/06/13 08:17:50;;;;;;;4.68;1.60;;;;;;;21.85;44.70;102132.03;5087588;28;20029;-64
2022/06/13 08:20:15;;;;;;;5.10;1.42;;;;;;;21.86;44.75;102128.31;5087256;28;20471;-64
2022/06/13 08:22:43;;;;;;;4.93;2.17;;;;;;;21.87;44.59;102134.59;5087741;28;20024;-64
2022/06/13 08:25:13;;;;;;;4.40;1.83;;;;;;;21.87;44.37;102134.59;5087553;28;20058;-64
2022/06/13 08:27:38;;;;;;;2.58;1.40;;;;;;;21.85;44.47;102139.31;5085973;28;20103;-64
2022/06/13 08:30:04;;;;;;;4.25;1.30;;;;;;;21.86;44.23;102136.44;5087348;28;20037;-64
2022/06/13 08:32:29;;;;;;;3.70;1.73;;;;;;;21.84;44.43;102141.19;5087136;28;20032;-64
2022/06/13 08:34:55;;;;;;;3.47;1.20;;;;;;;21.84;44.48;102154.72;5080001;28;20067;-64
2022/06/13 08:37:20;;;;;;;3.00;1.40;;;;;;;21.84;44.16;102149.31;5066995;28;20020;-64
2022/06/13 08:39:45;;;;;;;5.35;1.85;;;;;;;21.83;43.92;102144.88;5066870;28;20027;-64
2022/06/13 08:42:13;;;;;;;3.63;1.23;;;;;;;21.85;43.66;102145.59;5082629;28;20038;-64
2022/06/13 08:44:57;;;;;;;3.90;1.40;;;;;;;21.88;43.75;102150.69;5125652;28;20046;-64
2022/06/13 08:47:34;;;;;;;5.22;1.80;;;;;;;21.88;43.72;102155.25;5127502;28;20572;-64
2022/06/13 08:50:17;;;;;;;3.00;1.23;;;;;;;21.89;43.55;102157.81;5109076;28;20088;-64
2022/06/13 08:53:20;;;;;;;4.43;1.13;;;;;;;21.90;43.65;102154.06;5127902;28;20088;-64
2022/06/13 08:55:52;;;;;;;3.80;1.15;;;;;;;21.91;43.63;102157.63;5086625;28;20042;-64
2022/06/13 08:58:23;;;;;;;2.05;0.90;;;;;;;21.84;43.48;102152.00;5109097;28;20023;-64
2022/06/13 09:00:53;;;;;;;4.55;1.08;;;;;;;21.90;43.42;102173.03;5127493;28;20023;-64
2022/06/13 09:03:26;;;;;;;4.05;1.00;;;;;;;21.91;43.55;102166.59;5108646;28;20019;-64
2022/06/13 09:06:02;;;;;;;2.15;1.13;;;;;;;21.92;43.06;102172.91;5094012;28;20058;-64
2022/06/13 09:08:53;;;;;;;5.00;1.70;;;;;;;21.92;43.29;102187.28;5088592;28;20027;-64
2022/06/13 09:11:44;;;;;;;4.55;1.45;;;;;;;21.94;42.96;102179.84;5120081;28;20040;-64
2022/06/13 09:14:21;;;;;;;3.33;0.90;;;;;;;21.94;43.05;102174.41;5115906;28;20069;-64
2022/06/13 09:16:54;;;;;;;2.58;1.00;;;;;;;21.96;43.12;102174.25;5108851;28;20542;-64
2022/06/13 09:19:24;;;;;;;3.17;1.00;;;;;;;21.96;42.97;102169.72;5108171;28;20027;-64
2022/06/13 09:22:08;;;;;;;2.30;0.65;;;;;;;21.89;42.92;102157.81;5127085;28;20020;-64
2022/06/13 09:25:07;;;;;;;2.95;0.90;;;;;;;21.99;43.17;102175.81;5126922;28;20027;-63
2022/06/13 09:27:38;;;;;;;3.25;1.05;;;;;;;22.00;43.19;102182.91;5126914;28;20587;-64
2022/06/13 09:30:11;;;;;;;2.28;0.85;;;;;;;22.01;42.97;102169.22;5108961;28;20028;-65
2022/06/13 09:32:45;;;;;;;2.20;1.00;;;;;;;21.96;42.78;102175.13;5108800;28;20024;-65
2022/06/13 09:35:21;;;;;;;2.33;1.20;;;;;;;22.03;42.90;102196.16;5106690;28;20035;-64
2022/06/13 09:37:53;;;;;;;3.08;0.88;;;;;;;22.04;42.65;102190.56;5127022;28;20114;-64
2022/06/13 09:40:24;;;;;;;3.10;1.20;;;;;;;22.05;42.55;102204.97;5126551;28;20092;-64
2022/06/13 09:42:59;;;;;;;2.38;0.70;;;;;;;22.05;42.25;102211.25;5108684;28;20605;-64
2022/06/13 09:45:39;;;;;;;3.00;0.77;;;;;;;22.08;42.19;102201.94;5108572;28;20036;-64
2022/06/13 09:48:16;;;;;;;2.30;0.93;;;;;;;22.08;42.28;102191.09;5108127;28;20039;-64
2022/06/13 09:50:51;;;;;;;2.22;1.05;;;;;;;22.09;42.55;102204.50;5126406;28;20043;-64
2022/06/13 09:53:37;;;;;;;2.60;1.17;;;;;;;22.10;42.04;102217.03;5126309;28;20028;-64
2022/06/13 09:56:15;;;;;;;3.10;0.80;;;;;;;22.13;41.90;102213.16;5108474;28;20080;-65
2022/06/13 09:59:02;;;;;;;3.47;0.60;;;;;;;22.13;41.57;102205.91;5125548;28;20020;-64
2022/06/13 10:01:52;;;;;;;2.78;0.90;;;;;;;22.14;42.23;102206.75;5126305;28;20049;-64
2022/06/13 10:04:26;;;;;;;2.95;0.80;;;;;;;22.15;42.09;102211.16;5122160;28;20050;-64
2022/06/13 10:07:04;;;;;;;1.20;0.73;;;;;;;22.15;42.28;102213.88;5105862;28;20055;-64
2022/06/13 10:09:56;;;;;;;1.77;0.65;;;;;;;22.16;42.73;102210.16;5087475;28;20028;-64
2022/06/13 10:12:29;;;;;;;2.67;0.80;;;;;;;22.18;42.95;102213.56;5087185;28;20028;-64
2022/06/13 10:15:01;;;;;;;2.60;0.80;;;;;;;22.19;42.85;102215.25;5105831;28;20054;-64
2022/06/13 10:17:32;;;;;;;3.15;0.80;;;;;;;22.20;43.15;102214.25;5105212;28;20024;-64
2022/06/13 10:20:16;;;;;;;3.17;0.80;;;;;;;22.21;42.50;102221.34;5087200;28;20024;-64
2022/06/13 10:22:45;;;;;;;2.45;0.80;;;;;;;22.21;42.71;102218.66;5105644;28;20027;-64
2022/06/13 10:25:36;;;;;;;2.10;0.60;;;;;;;22.20;42.67;102216.94;5087615;28;20024;-64
2022/06/13 10:28:15;;;;;;;2.15;0.70;;;;;;;22.20;42.81;102225.94;5104720;28;20055;-64
2022/06/13 10:30:55;;;;;;;;;;;;;;;22.20;42.78;102217.78;5087780;28;20196;-64
2022/06/13 10:33:29;;;;;;;1.58;0.60;;;;;;;22.22;43.21;102212.25;5086742;28;19908;-64
2022/06/13 10:36:06;;;;;;;2.97;0.73;;;;;;;22.23;43.39;102218.50;5091134;28;20122;-64
2022/06/13 10:38:41;;;;;;;3.30;0.73;;;;;;;22.24;43.27;102212.06;5087108;28;20027;-64
2022/06/13 10:41:08;;;;;;;2.17;0.70;;;;;;;22.26;43.21;102223.59;5105527;28;20036;-64
2022/06/13 10:43:34;;;;;;;1.85;0.70;;;;;;;22.25;43.13;102225.44;5086829;28;20047;-64
2022/06/13 10:46:00;;;;;;;2.67;0.50;;;;;;;22.28;42.89;102227.00;5105394;28;20039;-64
2022/06/13 10:48:30;;;;;;;2.00;0.68;;;;;;;22.29;42.81;102239.53;5104482;28;20028;-64
2022/06/13 10:50:58;;;;;;;3.38;0.80;;;;;;;22.28;42.83;102233.25;5087376;28;20020;-64
2022/06/13 10:53:27;;;;;;;1.38;0.70;;;;;;;22.29;43.17;102231.41;5105213;28;20027;-64
2022/06/13 10:55:56;;;;;;;3.28;0.80;;;;;;;22.29;42.73;102247.66;5105311;28;20024;-64
2022/06/13 10:58:27;;;;;;;1.50;0.63;;;;;;;22.29;42.92;102228.69;5086654;28;20416;-64
2022/06/13 11:01:14;;;;;;;1.85;0.90;;;;;;;22.24;43.27;102218.34;5105183;28;20063;-64
2022/06/13 11:03:42;;;;;;;1.65;0.85;;;;;;;22.32;43.29;102242.78;5104515;28;20020;-64
2022/06/13 11:06:17;;;;;;;2.05;0.60;;;;;;;22.32;43.06;102233.81;5121792;28;20042;-64
2022/06/13 11:08:42;;;;;;;1.48;0.65;;;;;;;22.23;43.32;102223.91;5107314;28;20023;-64
2022/06/13 11:11:17;;;;;;;3.00;0.77;;;;;;;22.34;43.17;102238.03;5098647;28;20042;-64
2022/06/13 11:13:52;;;;;;;3.33;0.90;;;;;;;22.37;43.09;102245.00;5092092;28;20072;-64
2022/06/13 11:22:37;;;;;;;2.00;0.60;;;;;;;22.42;43.11;102239.94;5093721;28;20022;-64
2022/06/13 11:25:13;;;;;;;5.88;0.85;;;;;;;22.44;43.24;102240.66;5109147;28;20091;-65
2022/06/13 11:27:39;;;;;;;2.15;0.57;;;;;;;22.45;43.42;102240.50;5108782;28;20020;-64
2022/06/13 11:30:28;;;;;;;1.60;0.60;;;;;;;22.48;43.58;102247.47;5090975;28;20024;-65
2022/06/13 11:33:15;;;;;;;2.90;0.82;;;;;;;22.49;43.22;102242.88;5108879;28;20023;-64
2022/06/13 11:35:47;;;;;;;2.08;0.65;;;;;;;22.49;43.46;102242.88;5108877;28;20043;-65
2022/06/13 11:38:29;;;;;;;1.70;0.70;;;;;;;22.50;43.39;102252.72;5109756;28;20103;-64
2022/06/13 11:41:00;;;;;;;3.05;0.80;;;;;;;22.50;43.31;102258.13;5129555;28;20027;-64
2022/06/13 11:43:34;;;;;;;2.08;0.90;;;;;;;22.51;43.63;102244.41;5129095;28;20044;-64
2022/06/13 11:46:02;;;;;;;2.80;0.65;;;;;;;22.50;43.63;102253.56;5129533;28;20028;-65
2022/06/13 11:48:28;;;;;;;2.00;0.63;;;;;;;22.50;43.60;102239.16;5129281;28;20047;-64
2022/06/13 11:50:56;;;;;;;1.73;0.80;;;;;;;22.50;43.44;102248.13;5129423;28;20048;-64
2022/06/13 11:53:37;;;;;;;1.42;0.70;;;;;;;22.50;43.47;102245.44;5113807;28;20056;-65
2022/06/13 11:56:11;;;;;;;2.17;1.05;;;;;;;22.51;43.39;102244.41;5139710;28;20034;-64
2022/06/13 11:58:41;;;;;;;2.47;1.10;;;;;;;22.51;43.61;102254.41;5141448;28;20022;-64
2022/06/13 12:01:23;;;;;;;3.83;0.73;;;;;;;22.51;43.87;102249.81;5141879;28;20050;-65
2022/06/13 12:04:05;;;;;;;3.08;1.40;;;;;;;22.51;43.68;102248.97;5132137;28;20030;-64
2022/06/13 12:06:37;;;;;;;2.85;0.75;;;;;;;22.48;43.78;102244.75;5129134;28;20047;-64
2022/06/13 12:09:19;;;;;;;3.08;0.60;;;;;;;22.49;43.65;102251.00;5110365;28;20066;-65
2022/06/13 12:11:54;;;;;;;3.33;1.08;;;;;;;22.48;43.71;102246.63;5110392;28;20110;-64